sensor_id;sensor_type;location;lat;lon;timestamp;pressure;altitude;pressure_sealevel;temperature;humidity
55540;BME280;41384;51.418;7.286;2023-03-20T00:01:54;100136.44;;;10.46;100.00
55540;BME280;41384;51.418;7.286;2023-03-20T00:04:19;100140.19;;;10.30;100.00
55540;BME280;41384;51.418;7.286;2023-03-20T00:06:45;100143.81;;;10.22;100.00
55540;BME280;41384;51.418;7.286;2023-03-20T00:09:10;100144.59;;;10.16;100.00
55540;BME280;41384;51.418;7.286;2023-03-20T00:11:48;100149.50;;;10.26;100.00
55540;BME280;41384;51.418;7.286;2023-03-20T00:14:17;100144.50;;;10.38;100.00
55540;BME280;41384;51.418;7.286;2023-03-20T00:16:45;100151.84;;;10.07;100.00
55540;BME280;41384;51.418;7.286;2023-03-20T00:19:17;100160.50;;;10.30;100.00
55540;BME280;41384;51.418;7.286;2023-03-20T00:21:46;100169.59;;;10.27;100.00
55540;BME280;41384;51.418;7.286;2023-03-20T00:24:12;100159.03;;;10.20;100.00
55540;BME280;41384;51.418;7.286;2023-03-20T00:26:38;100167.69;;;10.07;100.00
55540;BME280;41384;51.418;7.286;2023-03-20T00:29:05;100160.84;;;10.20;100.00
55540;BME280;41384;51.418;7.286;2023-03-20T00:31:36;100162.84;;;10.18;100.00
55540;BME280;41384;51.418;7.286;2023-03-20T00:34:04;100156.78;;;10.17;100.00
55540;BME280;41384;51.418;7.286;2023-03-20T00:36:30;100166.56;;;10.30;100.00
55540;BME280;41384;51.418;7.286;2023-03-20T00:38:56;100171.00;;;10.23;100.00
55540;BME280;41384;51.418;7.286;2023-03-20T00:41:29;100168.81;;;10.27;100.00
55540;BME280;41384;51.418;7.286;2023-03-20T00:43:58;100169.81;;;10.26;100.00
55540;BME280;41384;51.418;7.286;2023-03-20T00:46:25;100174.69;;;10.29;100.00
55540;BME280;41384;51.418;7.286;2023-03-20T00:48:51;100168.75;;;10.20;100.00
55540;BME280;41384;51.418;7.286;2023-03-20T00:51:17;100159.53;;;9.74;100.00
55540;BME280;41384;51.418;7.286;2023-03-20T00:53:43;100166.47;;;10.10;100.00
55540;BME280;41384;51.418;7.286;2023-03-20T00:58:52;100165.69;;;9.81;100.00
55540;BME280;41384;51.418;7.286;2023-03-20T01:01:17;100161.72;;;9.99;100.00
55540;BME280;41384;51.418;7.286;2023-03-20T01:03:42;100160.22;;;9.83;100.00
55540;BME280;41384;51.418;7.286;2023-03-20T01:06:11;100157.31;;;10.06;100.00
55540;BME280;41384;51.418;7.286;2023-03-20T01:08:36;100154.03;;;9.97;100.00
55540;BME280;41384;51.418;7.286;2023-03-20T01:11:02;100149.72;;;9.89;100.00
55540;BME280;41384;51.418;7.286;2023-03-20T01:13:29;100138.53;;;9.87;100.00
55540;BME280;41384;51.418;7.286;2023-03-20T01:15:56;100140.41;;;9.93;100.00
55540;BME280;41384;51.418;7.286;2023-03-20T01:18:23;100150.63;;;10.03;100.00
55540;BME280;41384;51.418;7.286;2023-03-20T01:20:48;100147.69;;;9.91;100.00
55540;BME280;41384;51.418;7.286;2023-03-20T01:23:14;100156.34;;;9.78;100.00
55540;BME280;41384;51.418;7.286;2023-03-20T01:25:40;100147.19;;;9.74;100.00
55540;BME280;41384;51.418;7.286;2023-03-20T01:28:35;100153.31;;;9.82;100.00
55540;BME280;41384;51.418;7.286;2023-03-20T01:31:00;100165.53;;;9.89;100.00
55540;BME280;41384;51.418;7.286;2023-03-20T01:33:25;100162.34;;;10.01;100.00
55540;BME280;41384;51.418;7.286;2023-03-20T01:35:52;100153.88;;;10.05;100.00
55540;BME280;41384;51.418;7.286;2023-03-20T01:38:24;100156.03;;;9.95;100.00
55540;BME280;41384;51.418;7.286;2023-03-20T01:40:53;100152.78;;;9.64;100.00
55540;BME280;41384;51.418;7.286;2023-03-20T01:43:22;100152.09;;;9.84;100.00
55540;BME280;41384;51.418;7.286;2023-03-20T01:45:56;100159.00;;;9.85;100.00
55540;BME280;41384;51.418;7.286;2023-03-20T01:48:25;100166.22;;;9.70;100.00
55540;BME280;41384;51.418;7.286;2023-03-20T01:50:54;100176.03;;;9.83;100.00
55540;BME280;41384;51.418;7.286;2023-03-20T01:53:25;100170.47;;;9.71;100.00
55540;BME280;41384;51.418;7.286;2023-03-20T01:55:53;100178.63;;;9.76;100.00
55540;BME280;41384;51.418;7.286;2023-03-20T01:58:25;100181.88;;;9.78;99.88
55540;BME280;41384;51.418;7.286;2023-03-20T02:00:52;100173.72;;;9.73;99.22
55540;BME280;41384;51.418;7.286;2023-03-20T02:03:18;100167.22;;;9.69;99.74
55540;BME280;41384;51.418;7.286;2023-03-20T02:05:44;100163.81;;;9.75;97.75
55540;BME280;41384;51.418;7.286;2023-03-20T02:08:16;100152.47;;;9.74;98.08
55540;BME280;41384;51.418;7.286;2023-03-20T02:10:45;100149.28;;;9.86;97.36
55540;BME280;41384;51.418;7.286;2023-03-20T02:13:10;100156.97;;;9.81;95.98
55540;BME280;41384;51.418;7.286;2023-03-20T02:15:56;100152.50;;;9.81;95.75
55540;BME280;41384;51.418;7.286;2023-03-20T02:18:21;100156.84;;;9.67;95.57
55540;BME280;41384;51.418;7.286;2023-03-20T02:21:12;100160.59;;;9.51;98.83
55540;BME280;41384;51.418;7.286;2023-03-20T02:26:34;100160.66;;;9.36;99.74
55540;BME280;41384;51.418;7.286;2023-03-20T02:34:52;100182.56;;;9.37;100.00
55540;BME280;41384;51.418;7.286;2023-03-20T02:40:43;100167.56;;;9.37;100.00
55540;BME280;41384;51.418;7.286;2023-03-20T02:46:24;100149.31;;;9.36;100.00
55540;BME280;41384;51.418;7.286;2023-03-20T02:48:56;100150.06;;;9.08;100.00
55540;BME280;41384;51.418;7.286;2023-03-20T02:51:41;100155.53;;;9.06;100.00
55540;BME280;41384;51.418;7.286;2023-03-20T02:54:38;100167.13;;;9.12;100.00
55540;BME280;41384;51.418;7.286;2023-03-20T02:57:10;100172.75;;;9.09;100.00
55540;BME280;41384;51.418;7.286;2023-03-20T02:59:53;100179.03;;;9.08;100.00
55540;BME280;41384;51.418;7.286;2023-03-20T03:02:27;100181.44;;;9.46;97.41
55540;BME280;41384;51.418;7.286;2023-03-20T03:04:59;100174.91;;;9.20;98.05
55540;BME280;41384;51.418;7.286;2023-03-20T03:07:27;100186.69;;;9.46;96.35
55540;BME280;41384;51.418;7.286;2023-03-20T03:09:59;100186.63;;;9.39;96.72
55540;BME280;41384;51.418;7.286;2023-03-20T03:12:34;100185.22;;;9.37;95.62
55540;BME280;41384;51.418;7.286;2023-03-20T03:15:03;100187.38;;;9.33;95.65
55540;BME280;41384;51.418;7.286;2023-03-20T03:17:33;100185.88;;;9.45;95.74
55540;BME280;41384;51.418;7.286;2023-03-20T03:20:04;100177.91;;;9.17;98.25
55540;BME280;41384;51.418;7.286;2023-03-20T03:22:32;100185.81;;;9.17;98.04
55540;BME280;41384;51.418;7.286;2023-03-20T03:24:58;100187.31;;;9.26;97.72
55540;BME280;41384;51.418;7.286;2023-03-20T03:27:31;100193.16;;;9.00;98.61
55540;BME280;41384;51.418;7.286;2023-03-20T03:30:01;100186.13;;;9.29;97.85
55540;BME280;41384;51.418;7.286;2023-03-20T03:32:31;100176.53;;;9.43;96.77
55540;BME280;41384;51.418;7.286;2023-03-20T03:34:58;100165.06;;;9.29;98.31
55540;BME280;41384;51.418;7.286;2023-03-20T03:43:07;100152.97;;;9.34;95.79
55540;BME280;41384;51.418;7.286;2023-03-20T03:45:43;100158.41;;;9.11;98.53
55540;BME280;41384;51.418;7.286;2023-03-20T03:48:14;100139.41;;;9.16;97.00
55540;BME280;41384;51.418;7.286;2023-03-20T03:50:48;100128.88;;;9.16;95.74
55540;BME280;41384;51.418;7.286;2023-03-20T03:53:19;100121.94;;;9.08;97.65
55540;BME280;41384;51.418;7.286;2023-03-20T03:55:49;100118.44;;;9.01;96.97
55540;BME280;41384;51.418;7.286;2023-03-20T03:58:30;100119.59;;;9.20;95.20
55540;BME280;41384;51.418;7.286;2023-03-20T04:00:58;100123.88;;;8.99;95.99
55540;BME280;41384;51.418;7.286;2023-03-20T04:03:30;100128.50;;;9.19;95.16
55540;BME280;41384;51.418;7.286;2023-03-20T04:05:59;100129.97;;;9.00;97.25
55540;BME280;41384;51.418;7.286;2023-03-20T04:08:25;100143.38;;;9.05;95.57
55540;BME280;41384;51.418;7.286;2023-03-20T04:10:50;100151.41;;;8.97;96.43
55540;BME280;41384;51.418;7.286;2023-03-20T04:13:16;100153.25;;;8.81;99.58
55540;BME280;41384;51.418;7.286;2023-03-20T04:15:42;100162.19;;;9.02;96.14
55540;BME280;41384;51.418;7.286;2023-03-20T04:18:13;100169.25;;;9.01;96.69
55540;BME280;41384;51.418;7.286;2023-03-20T04:20:39;100177.41;;;9.07;96.05
55540;BME280;41384;51.418;7.286;2023-03-20T04:23:05;100174.84;;;8.92;97.25
55540;BME280;41384;51.418;7.286;2023-03-20T04:25:30;100166.50;;;8.88;98.20
55540;BME280;41384;51.418;7.286;2023-03-20T04:27:56;100163.72;;;8.96;97.14
55540;BME280;41384;51.418;7.286;2023-03-20T04:30:21;100162.84;;;8.89;97.65
55540;BME280;41384;51.418;7.286;2023-03-20T04:32:46;100161.06;;;9.11;95.17
55540;BME280;41384;51.418;7.286;2023-03-20T04:35:12;100160.47;;;9.16;95.04
55540;BME280;41384;51.418;7.286;2023-03-20T04:37:37;100145.56;;;9.23;94.43
55540;BME280;41384;51.418;7.286;2023-03-20T04:40:03;100146.19;;;9.25;92.18
55540;BME280;41384;51.418;7.286;2023-03-20T04:42:28;100141.59;;;9.34;92.45
55540;BME280;41384;51.418;7.286;2023-03-20T04:44:53;100140.03;;;9.18;92.82
55540;BME280;41384;51.418;7.286;2023-03-20T04:47:19;100136.16;;;9.14;93.76
55540;BME280;41384;51.418;7.286;2023-03-20T04:49:44;100128.00;;;9.09;94.33
55540;BME280;41384;51.418;7.286;2023-03-20T04:52:10;100126.38;;;9.08;94.12
55540;BME280;41384;51.418;7.286;2023-03-20T04:54:35;100128.13;;;9.22;93.36
55540;BME280;41384;51.418;7.286;2023-03-20T04:57:00;100126.09;;;9.24;92.82
55540;BME280;41384;51.418;7.286;2023-03-20T04:59:26;100133.72;;;9.12;94.00
55540;BME280;41384;51.418;7.286;2023-03-20T05:01:51;100121.97;;;9.15;91.94
55540;BME280;41384;51.418;7.286;2023-03-20T05:04:16;100114.00;;;9.30;91.89
55540;BME280;41384;51.418;7.286;2023-03-20T05:06:42;100104.13;;;9.10;92.46
55540;BME280;41384;51.418;7.286;2023-03-20T05:09:08;100106.31;;;9.07;91.86
55540;BME280;41384;51.418;7.286;2023-03-20T05:11:33;100112.34;;;9.00;91.76
55540;BME280;41384;51.418;7.286;2023-03-20T05:13:59;100105.75;;;8.89;92.68
55540;BME280;41384;51.418;7.286;2023-03-20T05:16:24;100102.19;;;8.97;92.82
55540;BME280;41384;51.418;7.286;2023-03-20T05:18:50;100100.78;;;9.01;92.16
55540;BME280;41384;51.418;7.286;2023-03-20T05:21:15;100105.94;;;8.88;92.88
55540;BME280;41384;51.418;7.286;2023-03-20T05:23:40;100113.97;;;9.01;92.96
55540;BME280;41384;51.418;7.286;2023-03-20T05:26:06;100111.63;;;8.70;94.38
55540;BME280;41384;51.418;7.286;2023-03-20T05:28:31;100117.09;;;8.90;93.86
55540;BME280;41384;51.418;7.286;2023-03-20T05:30:57;100118.97;;;8.96;93.02
55540;BME280;41384;51.418;7.286;2023-03-20T05:33:22;100122.97;;;8.70;95.52
55540;BME280;41384;51.418;7.286;2023-03-20T05:35:47;100118.78;;;8.76;95.09
55540;BME280;41384;51.418;7.286;2023-03-20T05:38:13;100130.66;;;8.72;96.25
55540;BME280;41384;51.418;7.286;2023-03-20T05:40:38;100140.50;;;8.63;96.66
55540;BME280;41384;51.418;7.286;2023-03-20T05:43:05;100140.91;;;8.82;94.90
55540;BME280;41384;51.418;7.286;2023-03-20T05:45:31;100148.78;;;8.60;98.16
55540;BME280;41384;51.418;7.286;2023-03-20T05:47:56;100148.06;;;8.88;95.65
55540;BME280;41384;51.418;7.286;2023-03-20T05:50:21;100141.91;;;8.81;95.56
55540;BME280;41384;51.418;7.286;2023-03-20T05:52:47;100139.78;;;8.91;94.45
55540;BME280;41384;51.418;7.286;2023-03-20T05:55:13;100146.88;;;8.90;95.16
55540;BME280;41384;51.418;7.286;2023-03-20T05:57:39;100145.34;;;8.81;95.39
55540;BME280;41384;51.418;7.286;2023-03-20T06:00:05;100142.63;;;8.89;95.07
55540;BME280;41384;51.418;7.286;2023-03-20T06:02:31;100140.53;;;9.07;93.47
55540;BME280;41384;51.418;7.286;2023-03-20T06:04:57;100144.50;;;8.96;93.97
55540;BME280;41384;51.418;7.286;2023-03-20T06:07:22;100151.69;;;8.87;95.19
55540;BME280;41384;51.418;7.286;2023-03-20T06:09:47;100148.06;;;8.88;95.16
55540;BME280;41384;51.418;7.286;2023-03-20T06:12:13;100143.69;;;8.95;94.63
55540;BME280;41384;51.418;7.286;2023-03-20T06:14:38;100140.78;;;8.90;94.81
55540;BME280;41384;51.418;7.286;2023-03-20T06:17:03;100139.13;;;8.67;97.21
55540;BME280;41384;51.418;7.286;2023-03-20T06:19:28;100136.03;;;8.79;95.75
55540;BME280;41384;51.418;7.286;2023-03-20T06:21:54;100131.09;;;8.90;95.03
55540;BME280;41384;51.418;7.286;2023-03-20T06:24:19;100141.44;;;8.77;94.83
55540;BME280;41384;51.418;7.286;2023-03-20T06:26:44;100146.63;;;8.85;95.03
55540;BME280;41384;51.418;7.286;2023-03-20T06:29:10;100149.19;;;9.00;93.98
55540;BME280;41384;51.418;7.286;2023-03-20T06:31:35;100155.84;;;8.96;94.79
55540;BME280;41384;51.418;7.286;2023-03-20T06:34:00;100158.63;;;8.73;96.38
55540;BME280;41384;51.418;7.286;2023-03-20T06:36:26;100159.84;;;8.92;94.71
55540;BME280;41384;51.418;7.286;2023-03-20T06:38:51;100164.97;;;8.79;94.97
55540;BME280;41384;51.418;7.286;2023-03-20T06:41:17;100161.94;;;8.97;94.14
55540;BME280;41384;51.418;7.286;2023-03-20T06:43:42;100158.22;;;8.91;94.57
55540;BME280;41384;51.418;7.286;2023-03-20T06:46:08;100159.78;;;8.85;93.93
55540;BME280;41384;51.418;7.286;2023-03-20T06:48:33;100158.72;;;9.01;92.63
55540;BME280;41384;51.418;7.286;2023-03-20T06:50:59;100167.88;;;9.05;91.86
55540;BME280;41384;51.418;7.286;2023-03-20T06:53:24;100171.34;;;8.69;93.65
55540;BME280;41384;51.418;7.286;2023-03-20T06:55:50;100179.38;;;8.83;93.98
55540;BME280;41384;51.418;7.286;2023-03-20T06:58:15;100172.84;;;8.94;92.55
55540;BME280;41384;51.418;7.286;2023-03-20T07:00:41;100185.69;;;8.67;93.48
55540;BME280;41384;51.418;7.286;2023-03-20T07:03:07;100192.47;;;8.76;92.35
55540;BME280;41384;51.418;7.286;2023-03-20T07:05:33;100193.06;;;8.93;92.43
55540;BME280;41384;51.418;7.286;2023-03-20T07:07:59;100186.16;;;8.92;91.61
55540;BME280;41384;51.418;7.286;2023-03-20T07:10:24;100186.41;;;8.75;92.53
55540;BME280;41384;51.418;7.286;2023-03-20T07:12:49;100187.78;;;8.71;93.93
55540;BME280;41384;51.418;7.286;2023-03-20T07:15:15;100188.66;;;8.79;93.33
55540;BME280;41384;51.418;7.286;2023-03-20T07:17:41;100185.75;;;8.88;94.11
55540;BME280;41384;51.418;7.286;2023-03-20T07:20:07;100185.88;;;9.02;92.46
55540;BME280;41384;51.418;7.286;2023-03-20T07:22:32;100183.50;;;9.07;91.02
55540;BME280;41384;51.418;7.286;2023-03-20T07:24:57;100191.91;;;8.96;90.03
55540;BME280;41384;51.418;7.286;2023-03-20T07:27:23;100186.50;;;9.04;90.87
55540;BME280;41384;51.418;7.286;2023-03-20T07:29:48;100183.88;;;9.26;87.55
55540;BME280;41384;51.418;7.286;2023-03-20T07:32:14;100189.69;;;9.21;88.13
55540;BME280;41384;51.418;7.286;2023-03-20T07:34:40;100193.56;;;9.03;89.14
55540;BME280;41384;51.418;7.286;2023-03-20T07:37:06;100200.56;;;9.11;87.63
55540;BME280;41384;51.418;7.286;2023-03-20T07:39:31;100192.47;;;9.13;86.61
55540;BME280;41384;51.418;7.286;2023-03-20T07:41:56;100191.84;;;9.32;86.12
55540;BME280;41384;51.418;7.286;2023-03-20T07:44:22;100201.94;;;9.29;85.73
55540;BME280;41384;51.418;7.286;2023-03-20T07:46:47;100209.78;;;9.44;83.98
55540;BME280;41384;51.418;7.286;2023-03-20T07:49:13;100202.06;;;9.42;83.99
55540;BME280;41384;51.418;7.286;2023-03-20T07:51:39;100198.41;;;9.65;83.96
55540;BME280;41384;51.418;7.286;2023-03-20T07:54:04;100209.69;;;9.59;84.83
55540;BME280;41384;51.418;7.286;2023-03-20T07:56:30;100215.53;;;9.76;83.64
55540;BME280;41384;51.418;7.286;2023-03-20T07:58:55;100216.28;;;9.70;83.61
55540;BME280;41384;51.418;7.286;2023-03-20T08:01:21;100205.28;;;9.88;81.64
55540;BME280;41384;51.418;7.286;2023-03-20T08:03:46;100210.16;;;9.91;82.14
55540;BME280;41384;51.418;7.286;2023-03-20T08:06:12;100204.31;;;9.96;81.65
55540;BME280;41384;51.418;7.286;2023-03-20T08:08:37;100211.41;;;9.95;81.52
55540;BME280;41384;51.418;7.286;2023-03-20T08:11:02;100215.34;;;9.77;81.04
55540;BME280;41384;51.418;7.286;2023-03-20T08:13:28;100220.19;;;9.52;80.51
55540;BME280;41384;51.418;7.286;2023-03-20T08:15:53;100216.91;;;9.72;81.40
55540;BME280;41384;51.418;7.286;2023-03-20T08:18:18;100230.75;;;9.52;80.98
55540;BME280;41384;51.418;7.286;2023-03-20T08:20:46;100229.13;;;9.51;80.91
55540;BME280;41384;51.418;7.286;2023-03-20T08:23:11;100222.28;;;9.85;80.28
55540;BME280;41384;51.418;7.286;2023-03-20T08:25:37;100227.63;;;9.92;79.63
55540;BME280;41384;51.418;7.286;2023-03-20T08:28:02;100215.44;;;9.91;77.59
55540;BME280;41384;51.418;7.286;2023-03-20T08:30:28;100224.78;;;9.93;77.61
55540;BME280;41384;51.418;7.286;2023-03-20T08:32:54;100221.13;;;9.66;78.85
55540;BME280;41384;51.418;7.286;2023-03-20T08:35:19;100223.84;;;10.01;77.71
55540;BME280;41384;51.418;7.286;2023-03-20T08:37:45;100224.88;;;10.07;76.93
55540;BME280;41384;51.418;7.286;2023-03-20T08:40:11;100222.28;;;10.14;76.35
55540;BME280;41384;51.418;7.286;2023-03-20T08:42:36;100223.56;;;9.68;77.16
55540;BME280;41384;51.418;7.286;2023-03-20T08:45:01;100228.03;;;9.96;76.68
55540;BME280;41384;51.418;7.286;2023-03-20T08:47:27;100229.13;;;10.08;76.07
55540;BME280;41384;51.418;7.286;2023-03-20T08:49:52;100230.69;;;9.96;75.73
55540;BME280;41384;51.418;7.286;2023-03-20T08:52:17;100224.94;;;10.14;74.87
55540;BME280;41384;51.418;7.286;2023-03-20T08:54:42;100236.56;;;9.98;73.60
55540;BME280;41384;51.418;7.286;2023-03-20T08:57:08;100230.75;;;10.09;73.63
55540;BME280;41384;51.418;7.286;2023-03-20T08:59:33;100222.19;;;10.00;74.14
55540;BME280;41384;51.418;7.286;2023-03-20T09:01:58;100218.94;;;10.27;73.17
55540;BME280;41384;51.418;7.286;2023-03-20T09:04:24;100215.69;;;10.31;73.45
55540;BME280;41384;51.418;7.286;2023-03-20T09:06:49;100221.97;;;10.24;73.20
55540;BME280;41384;51.418;7.286;2023-03-20T09:09:16;100216.91;;;10.29;71.73
55540;BME280;41384;51.418;7.286;2023-03-20T09:11:44;100210.66;;;10.01;72.92
55540;BME280;41384;51.418;7.286;2023-03-20T09:14:10;100213.53;;;10.13;73.08
55540;BME280;41384;51.418;7.286;2023-03-20T09:16:35;100217.50;;;9.96;72.47
55540;BME280;41384;51.418;7.286;2023-03-20T09:19:01;100220.13;;;10.24;71.70
55540;BME280;41384;51.418;7.286;2023-03-20T09:21:26;100221.44;;;9.56;73.53
55540;BME280;41384;51.418;7.286;2023-03-20T09:23:51;100214.72;;;9.75;72.10
55540;BME280;41384;51.418;7.286;2023-03-20T09:26:16;100215.09;;;9.72;72.86
55540;BME280;41384;51.418;7.286;2023-03-20T09:28:42;100223.53;;;9.89;70.45
55540;BME280;41384;51.418;7.286;2023-03-20T09:31:07;100227.72;;;10.05;70.28
55540;BME280;41384;51.418;7.286;2023-03-20T09:33:32;100217.97;;;9.77;69.93
55540;BME280;41384;51.418;7.286;2023-03-20T09:35:58;100228.38;;;9.86;72.13
55540;BME280;41384;51.418;7.286;2023-03-20T09:38:23;100220.63;;;9.56;70.18
55540;BME280;41384;51.418;7.286;2023-03-20T09:41:01;100219.00;;;9.76;70.51
55540;BME280;41384;51.418;7.286;2023-03-20T09:44:08;100228.25;;;9.94;69.41
55540;BME280;41384;51.418;7.286;2023-03-20T09:54:56;100222.81;;;10.02;70.84
55540;BME280;41384;51.418;7.286;2023-03-20T09:57:26;100219.88;;;10.19;70.46
55540;BME280;41384;51.418;7.286;2023-03-20T09:59:58;100218.25;;;10.18;70.04
55540;BME280;41384;51.418;7.286;2023-03-20T10:02:49;100220.75;;;10.26;68.84
55540;BME280;41384;51.418;7.286;2023-03-20T10:05:21;100229.09;;;10.30;68.20
55540;BME280;41384;51.418;7.286;2023-03-20T10:07:48;100224.53;;;10.17;66.78
55540;BME280;41384;51.418;7.286;2023-03-20T10:10:14;100228.97;;;10.10;67.23
55540;BME280;41384;51.418;7.286;2023-03-20T10:12:47;100224.41;;;9.97;67.97
55540;BME280;41384;51.418;7.286;2023-03-20T10:15:51;100226.84;;;9.98;69.12
55540;BME280;41384;51.418;7.286;2023-03-20T10:18:23;100235.47;;;9.85;67.86
55540;BME280;41384;51.418;7.286;2023-03-20T10:21:01;100232.97;;;9.77;68.09
55540;BME280;41384;51.418;7.286;2023-03-20T10:23:35;100220.75;;;9.98;66.81
55540;BME280;41384;51.418;7.286;2023-03-20T10:26:11;100227.34;;;10.15;67.17
55540;BME280;41384;51.418;7.286;2023-03-20T10:28:56;100223.06;;;10.07;66.68
55540;BME280;41384;51.418;7.286;2023-03-20T10:31:46;100217.81;;;10.14;66.53
55540;BME280;41384;51.418;7.286;2023-03-20T10:37:31;100220.31;;;10.22;67.16
55540;BME280;41384;51.418;7.286;2023-03-20T10:42:42;100203.34;;;10.32;66.01
55540;BME280;41384;51.418;7.286;2023-03-20T10:47:51;100206.50;;;10.56;65.05
55540;BME280;41384;51.418;7.286;2023-03-20T10:50:18;100212.81;;;10.55;64.26
55540;BME280;41384;51.418;7.286;2023-03-20T10:52:46;100208.22;;;10.35;64.16
55540;BME280;41384;51.418;7.286;2023-03-20T10:55:17;100203.94;;;10.34;65.25
55540;BME280;41384;51.418;7.286;2023-03-20T10:57:57;100198.00;;;10.25;65.33
55540;BME280;41384;51.418;7.286;2023-03-20T11:00:28;100198.44;;;10.29;66.95
55540;BME280;41384;51.418;7.286;2023-03-20T11:02:53;100202.59;;;10.45;66.01
55540;BME280;41384;51.418;7.286;2023-03-20T11:07:50;100206.06;;;10.45;63.48
55540;BME280;41384;51.418;7.286;2023-03-20T11:10:16;100200.34;;;10.42;62.18
55540;BME280;41384;51.418;7.286;2023-03-20T11:12:46;100196.41;;;10.66;62.02
55540;BME280;41384;51.418;7.286;2023-03-20T11:15:26;100191.06;;;10.53;62.58
55540;BME280;41384;51.418;7.286;2023-03-20T11:17:59;100182.63;;;10.71;61.79
55540;BME280;41384;51.418;7.286;2023-03-20T11:20:33;100192.69;;;10.54;61.50
55540;BME280;41384;51.418;7.286;2023-03-20T11:23:02;100176.03;;;10.53;60.62
55540;BME280;41384;51.418;7.286;2023-03-20T11:28:35;100172.31;;;10.89;59.96
55540;BME280;41384;51.418;7.286;2023-03-20T11:33:43;100167.66;;;11.05;60.71
55540;BME280;41384;51.418;7.286;2023-03-20T11:36:31;100162.56;;;11.03;60.61
55540;BME280;41384;51.418;7.286;2023-03-20T11:39:25;100162.94;;;10.80;58.73
55540;BME280;41384;51.418;7.286;2023-03-20T11:41:56;100173.13;;;10.97;58.34
55540;BME280;41384;51.418;7.286;2023-03-20T11:44:27;100163.03;;;11.14;59.24
55540;BME280;41384;51.418;7.286;2023-03-20T11:47:01;100163.84;;;11.21;59.26
55540;BME280;41384;51.418;7.286;2023-03-20T11:49:31;100155.69;;;11.22;58.99
55540;BME280;41384;51.418;7.286;2023-03-20T11:52:11;100156.50;;;11.09;58.36
55540;BME280;41384;51.418;7.286;2023-03-20T11:54:38;100162.41;;;11.12;57.71
55540;BME280;41384;51.418;7.286;2023-03-20T11:57:12;100157.75;;;11.14;57.44
55540;BME280;41384;51.418;7.286;2023-03-20T11:59:50;100158.69;;;10.79;57.76
55540;BME280;41384;51.418;7.286;2023-03-20T12:02:20;100167.00;;;10.83;58.97
55540;BME280;41384;51.418;7.286;2023-03-20T12:04:46;100174.28;;;10.67;58.33
55540;BME280;41384;51.418;7.286;2023-03-20T12:07:22;100171.22;;;10.70;58.75
55540;BME280;41384;51.418;7.286;2023-03-20T12:09:57;100168.56;;;10.57;60.03
55540;BME280;41384;51.418;7.286;2023-03-20T12:17:45;100156.66;;;10.88;60.69
55540;BME280;41384;51.418;7.286;2023-03-20T12:20:21;100158.28;;;10.89;61.00
55540;BME280;41384;51.418;7.286;2023-03-20T12:22:59;100166.69;;;10.50;60.39
55540;BME280;41384;51.418;7.286;2023-03-20T12:25:27;100161.50;;;10.71;60.79
55540;BME280;41384;51.418;7.286;2023-03-20T12:28:02;100161.94;;;10.81;61.12
55540;BME280;41384;51.418;7.286;2023-03-20T12:30:47;100169.81;;;10.74;61.01
55540;BME280;41384;51.418;7.286;2023-03-20T12:33:30;100164.53;;;10.68;61.61
55540;BME280;41384;51.418;7.286;2023-03-20T12:36:00;100162.56;;;10.90;61.29
55540;BME280;41384;51.418;7.286;2023-03-20T12:38:28;100167.84;;;10.83;61.09
55540;BME280;41384;51.418;7.286;2023-03-20T12:43:43;100157.81;;;10.65;62.39
55540;BME280;41384;51.418;7.286;2023-03-20T12:46:25;100161.47;;;10.64;62.83
55540;BME280;41384;51.418;7.286;2023-03-20T12:49:02;100157.16;;;10.49;63.22
55540;BME280;41384;51.418;7.286;2023-03-20T12:57:29;100152.16;;;10.75;63.83
55540;BME280;41384;51.418;7.286;2023-03-20T13:00:14;100156.84;;;10.31;64.20
55540;BME280;41384;51.418;7.286;2023-03-20T13:03:04;100158.78;;;10.15;66.14
55540;BME280;41384;51.418;7.286;2023-03-20T13:05:40;100155.22;;;10.30;65.49
55540;BME280;41384;51.418;7.286;2023-03-20T13:11:04;100146.38;;;10.44;65.05
55540;BME280;41384;51.418;7.286;2023-03-20T13:13:41;100148.94;;;10.31;66.59
55540;BME280;41384;51.418;7.286;2023-03-20T13:16:31;100155.31;;;10.43;66.66
55540;BME280;41384;51.418;7.286;2023-03-20T13:19:13;100145.78;;;10.49;67.00
55540;BME280;41384;51.418;7.286;2023-03-20T13:22:05;100148.06;;;10.59;66.23
55540;BME280;41384;51.418;7.286;2023-03-20T13:24:48;100149.03;;;10.44;67.46
55540;BME280;41384;51.418;7.286;2023-03-20T13:27:44;100149.41;;;10.41;68.54
55540;BME280;41384;51.418;7.286;2023-03-20T13:30:29;100148.66;;;10.19;68.54
55540;BME280;41384;51.418;7.286;2023-03-20T13:36:04;100142.34;;;10.55;70.04
55540;BME280;41384;51.418;7.286;2023-03-20T13:38:39;100142.59;;;10.25;69.78
55540;BME280;41384;51.418;7.286;2023-03-20T13:41:07;100133.28;;;10.29;67.95
55540;BME280;41384;51.418;7.286;2023-03-20T13:43:38;100136.97;;;10.35;67.35
55540;BME280;41384;51.418;7.286;2023-03-20T13:46:08;100138.94;;;10.19;68.31
55540;BME280;41384;51.418;7.286;2023-03-20T13:48:40;100135.00;;;10.08;68.50
55540;BME280;41384;51.418;7.286;2023-03-20T13:59:55;100123.25;;;10.46;67.82
55540;BME280;41384;51.418;7.286;2023-03-20T14:02:44;100118.97;;;10.52;67.83
55540;BME280;41384;51.418;7.286;2023-03-20T14:05:18;100122.78;;;10.36;69.14
55540;BME280;41384;51.418;7.286;2023-03-20T14:07:47;100122.56;;;10.37;68.25
55540;BME280;41384;51.418;7.286;2023-03-20T14:12:55;100125.66;;;10.48;67.33
55540;BME280;41384;51.418;7.286;2023-03-20T14:15:23;100121.84;;;10.50;67.39
55540;BME280;41384;51.418;7.286;2023-03-20T14:17:50;100118.56;;;10.48;67.24
55540;BME280;41384;51.418;7.286;2023-03-20T14:20:28;100118.38;;;10.50;67.21
55540;BME280;41384;51.418;7.286;2023-03-20T14:22:55;100117.69;;;10.34;67.01
55540;BME280;41384;51.418;7.286;2023-03-20T14:25:22;100113.19;;;10.28;67.90
55540;BME280;41384;51.418;7.286;2023-03-20T14:27:58;100107.38;;;10.40;68.56